createdAt,value
2023-01-20T00:00:35.740Z,20.83
2023-01-20T00:01:38.902Z,25.10
2023-01-20T00:02:42.480Z,20.45
2023-01-20T00:03:52.767Z,22.33
2023-01-20T00:04:56.264Z,22.85
2023-01-20T00:05:58.855Z,27.00
2023-01-20T00:07:08.729Z,23.90
2023-01-20T00:08:11.214Z,22.25
2023-01-20T00:09:23.794Z,20.58
2023-01-20T00:10:26.734Z,25.60
2023-01-20T00:11:30.901Z,26.42
2023-01-20T00:12:54.713Z,25.27
2023-01-20T00:13:58.307Z,23.35
2023-01-20T00:15:08.741Z,27.38
2023-01-20T00:16:12.182Z,30.13
2023-01-20T00:17:21.733Z,29.45
2023-01-20T00:18:24.533Z,25.30
2023-01-20T00:19:34.789Z,22.42
2023-01-20T00:20:37.357Z,22.55
2023-01-20T00:21:40.813Z,26.48
2023-01-20T00:22:43.343Z,25.90
2023-01-20T00:23:47.491Z,27.75
2023-01-20T00:24:58.783Z,29.92
2023-01-20T00:26:04.817Z,28.13
2023-01-20T00:27:08.798Z,27.83
2023-01-20T00:28:11.366Z,26.55
2023-01-20T00:29:14.972Z,29.02
2023-01-20T00:30:24.758Z,29.67
2023-01-20T00:31:35.821Z,26.23
2023-01-20T00:32:39.220Z,28.05
2023-01-20T00:33:42.965Z,25.83
2023-01-20T00:34:45.434Z,27.52
2023-01-20T00:35:48.823Z,24.42
2023-01-20T00:36:57.756Z,29.20
2023-01-20T00:38:01.215Z,24.05
2023-01-20T00:39:04.401Z,31.38
2023-01-20T00:40:09.654Z,30.10
2023-01-20T00:41:12.769Z,32.42
2023-01-20T00:42:22.773Z,26.48
2023-01-20T00:43:25.272Z,24.83
2023-01-20T00:44:28.683Z,28.48
2023-01-20T00:45:31.189Z,29.02
2023-01-20T00:46:34.669Z,31.35
2023-01-20T00:47:43.754Z,32.85
2023-01-20T00:48:47.182Z,29.70
2023-01-20T00:49:49.688Z,31.27
2023-01-20T00:50:53.096Z,29.38
2023-01-20T00:51:55.593Z,28.90
2023-01-20T00:53:05.723Z,31.55
2023-01-20T00:54:14.735Z,30.27
2023-01-20T00:55:19.442Z,26.67
2023-01-20T00:56:21.871Z,29.67
2023-01-20T00:57:25.283Z,29.00
2023-01-20T00:58:27.817Z,30.55
2023-01-20T00:59:37.722Z,31.05
2023-01-20T01:00:40.285Z,29.00
2023-01-20T01:01:43.810Z,28.73
2023-01-20T01:02:54.919Z,27.80
2023-01-20T01:03:58.553Z,34.50
2023-01-20T01:05:01.063Z,33.03
2023-01-20T01:06:14.754Z,33.83
2023-01-20T01:07:17.319Z,28.23
2023-01-20T01:08:20.751Z,30.92
2023-01-20T01:09:23.229Z,31.13
2023-01-20T01:10:27.970Z,33.72
2023-01-20T01:11:36.735Z,35.22
2023-01-20T01:12:53.878Z,33.92
2023-01-20T01:13:57.019Z,29.10
2023-01-20T01:15:00.421Z,29.23
2023-01-20T01:16:02.969Z,31.08
2023-01-20T01:17:12.723Z,26.48
2023-01-20T01:18:15.215Z,28.20
2023-01-20T01:19:25.751Z,30.48
2023-01-20T01:20:29.169Z,29.13
2023-01-20T01:21:32.673Z,28.77
2023-01-20T01:22:41.751Z,28.65
2023-01-20T01:23:45.451Z,29.25
2023-01-20T01:24:48.063Z,27.17
2023-01-20T01:25:52.755Z,29.17
2023-01-20T01:27:02.755Z,33.65
2023-01-20T01:28:05.275Z,29.13
2023-01-20T01:29:14.756Z,29.00
2023-01-20T01:30:17.546Z,28.73
2023-01-20T01:31:22.082Z,31.40
2023-01-20T01:32:31.715Z,32.30
2023-01-20T01:33:35.239Z,32.58
2023-01-20T01:34:37.732Z,32.25
2023-01-20T01:35:41.165Z,33.85
2023-01-20T01:36:43.643Z,37.53
2023-01-20T01:37:53.747Z,34.42
2023-01-20T01:38:57.888Z,30.48
2023-01-20T01:40:02.671Z,31.55
2023-01-20T01:41:06.654Z,31.48
2023-01-20T01:42:12.435Z,34.60
2023-01-20T01:43:28.736Z,32.53
2023-01-20T01:44:33.632Z,28.67
2023-01-20T01:45:36.260Z,33.35
2023-01-20T01:46:40.191Z,30.92
2023-01-20T01:47:43.852Z,31.42
2023-01-20T01:48:54.745Z,30.13
2023-01-20T01:49:57.253Z,31.30
2023-01-20T01:51:03.372Z,34.60
2023-01-20T01:52:09.146Z,32.38
2023-01-20T01:53:18.747Z,34.63
2023-01-20T01:54:23.478Z,31.85
2023-01-20T01:55:33.733Z,29.63
2023-01-20T01:56:39.482Z,29.20
2023-01-20T01:57:42.102Z,34.10
2023-01-20T01:58:47.109Z,31.85
2023-01-20T01:59:55.768Z,30.33
2023-01-20T02:00:59.263Z,29.00
2023-01-20T02:02:09.781Z,28.80
2023-01-20T02:03:12.831Z,26.52
2023-01-20T02:04:16.900Z,25.80
2023-01-20T02:05:20.078Z,25.90
2023-01-20T02:06:24.711Z,28.88
2023-01-20T02:07:34.814Z,28.95
2023-01-20T02:08:38.565Z,28.17
2023-01-20T02:09:41.020Z,27.90
2023-01-20T02:10:44.422Z,29.98
2023-01-20T02:11:50.028Z,30.42
2023-01-20T02:13:06.880Z,27.85
2023-01-20T02:14:09.578Z,30.50
2023-01-20T02:15:13.515Z,29.00
2023-01-20T02:16:19.137Z,34.15
2023-01-20T02:17:26.466Z,27.45
2023-01-20T02:18:41.739Z,29.85
2023-01-20T02:20:10.803Z,30.65
2023-01-20T02:21:22.804Z,28.65
2023-01-20T02:22:31.233Z,32.75
2023-01-20T02:23:44.636Z,30.40
2023-01-20T02:25:07.046Z,30.60
2023-01-20T02:26:35.745Z,33.33
2023-01-20T02:27:53.054Z,25.58
2023-01-20T02:29:08.067Z,28.30
2023-01-20T02:30:23.244Z,26.27
2023-01-20T02:31:40.785Z,32.45
2023-01-20T02:32:49.688Z,28.38
2023-01-20T02:33:54.119Z,32.88
2023-01-20T02:35:01.845Z,30.15
2023-01-20T02:36:13.733Z,31.55
2023-01-20T02:37:18.730Z,26.65
2023-01-20T02:38:33.757Z,28.73
2023-01-20T02:39:41.805Z,26.42
2023-01-20T02:40:49.670Z,29.92
2023-01-20T02:42:02.750Z,28.77
2023-01-20T02:43:09.557Z,29.58
2023-01-20T02:44:15.269Z,31.40
2023-01-20T02:45:21.414Z,31.10
2023-01-20T02:46:33.789Z,29.02
2023-01-20T02:47:38.443Z,28.83
2023-01-20T02:48:45.599Z,31.10
2023-01-20T02:49:53.622Z,31.98
2023-01-20T02:51:01.195Z,31.98
2023-01-20T02:52:13.829Z,32.95
2023-01-20T02:53:18.648Z,27.55
2023-01-20T02:54:22.513Z,30.30
2023-01-20T02:55:28.145Z,33.17
2023-01-20T02:56:31.181Z,29.35
2023-01-20T02:57:42.743Z,29.02
2023-01-20T02:58:49.624Z,28.65
2023-01-20T02:59:54.057Z,32.40
2023-01-20T03:01:00.007Z,29.73
2023-01-20T03:02:05.106Z,28.80
2023-01-20T03:03:16.755Z,34.08
2023-01-20T03:04:25.003Z,32.42
2023-01-20T03:05:36.832Z,28.48
2023-01-20T03:06:44.149Z,29.55
2023-01-20T03:07:46.872Z,34.47
2023-01-20T03:08:58.865Z,31.67
2023-01-20T03:10:03.618Z,35.58
2023-01-20T03:11:14.760Z,32.97
2023-01-20T03:12:40.738Z,37.97
2023-01-20T03:14:04.707Z,29.67
2023-01-20T03:15:09.862Z,28.65
2023-01-20T03:16:19.774Z,30.08
2023-01-20T03:17:23.922Z,31.92
2023-01-20T03:18:26.754Z,30.00
2023-01-20T03:19:31.565Z,30.67
2023-01-20T03:20:34.287Z,30.60
2023-01-20T03:21:44.725Z,34.15
2023-01-20T03:22:47.256Z,33.15
2023-01-20T03:23:51.936Z,32.10
2023-01-20T03:24:55.087Z,28.60
2023-01-20T03:26:05.725Z,29.65
2023-01-20T03:27:14.764Z,30.77
2023-01-20T03:28:18.233Z,28.38
2023-01-20T03:29:26.724Z,33.70
2023-01-20T03:30:30.288Z,29.75
2023-01-20T03:31:42.969Z,31.10
2023-01-20T03:32:47.533Z,32.80
2023-01-20T03:33:51.201Z,34.25
2023-01-20T03:34:57.617Z,29.95
2023-01-20T03:36:00.122Z,30.05
2023-01-20T03:37:10.756Z,30.05
2023-01-20T03:38:19.763Z,31.55
2023-01-20T03:39:25.205Z,30.02
2023-01-20T03:40:30.936Z,31.02
2023-01-20T03:41:38.079Z,27.98
2023-01-20T03:42:49.754Z,28.17
2023-01-20T03:43:57.684Z,30.48
2023-01-20T03:45:07.218Z,30.75
2023-01-20T03:46:13.834Z,30.17
2023-01-20T03:47:19.098Z,30.88
2023-01-20T03:48:32.785Z,33.38
2023-01-20T03:49:37.662Z,27.42
2023-01-20T03:50:45.304Z,26.92
2023-01-20T03:51:52.877Z,31.75
2023-01-20T03:52:57.680Z,32.97
2023-01-20T03:54:08.743Z,26.38
2023-01-20T03:55:14.726Z,31.00
2023-01-20T03:56:25.753Z,27.42
2023-01-20T03:57:31.120Z,29.33
2023-01-20T03:58:42.743Z,27.70
2023-01-20T03:59:53.787Z,30.05
2023-01-20T04:00:57.882Z,29.05
2023-01-20T04:02:04.382Z,29.60
2023-01-20T04:03:09.531Z,27.58
2023-01-20T04:04:14.553Z,32.40
2023-01-20T04:05:24.791Z,28.23
2023-01-20T04:06:29.101Z,28.95
2023-01-20T04:07:33.023Z,31.92
2023-01-20T04:08:36.810Z,28.70
2023-01-20T04:09:41.334Z,32.03
2023-01-20T04:10:52.756Z,30.35
2023-01-20T04:11:56.301Z,34.63
2023-01-20T04:13:18.743Z,27.88
2023-01-20T04:14:28.774Z,30.42
2023-01-20T04:15:33.756Z,34.80
2023-01-20T04:16:38.094Z,31.42
2023-01-20T04:17:40.766Z,35.08
2023-01-20T04:18:44.995Z,34.92
2023-01-20T04:19:53.752Z,29.95
2023-01-20T04:21:05.815Z,30.30
2023-01-20T04:22:13.462Z,30.77
2023-01-20T04:23:19.833Z,29.65
2023-01-20T04:24:32.804Z,33.78
2023-01-20T04:25:36.274Z,33.88
2023-01-20T04:26:38.762Z,34.08
2023-01-20T04:27:42.153Z,34.75
2023-01-20T04:28:45.535Z,30.77
2023-01-20T04:29:54.814Z,35.65
2023-01-20T04:30:58.339Z,34.88
2023-01-20T04:32:02.072Z,31.52
2023-01-20T04:33:04.651Z,32.28
2023-01-20T04:34:08.633Z,31.38
2023-01-20T04:35:19.796Z,34.03
2023-01-20T04:36:23.242Z,33.35
2023-01-20T04:37:27.116Z,33.72
2023-01-20T04:38:30.612Z,30.50
2023-01-20T04:39:33.127Z,34.30
2023-01-20T04:40:43.236Z,34.95
2023-01-20T04:41:46.666Z,32.13
2023-01-20T04:42:49.216Z,41.42
2023-01-20T04:43:52.616Z,52.38
2023-01-20T04:44:55.092Z,54.50
2023-01-20T04:46:04.817Z,50.15
2023-01-20T04:47:13.742Z,40.10
2023-01-20T04:48:17.147Z,35.58
2023-01-20T04:49:19.591Z,33.90
2023-01-20T04:50:23.023Z,36.60
2023-01-20T04:51:25.488Z,31.27
2023-01-20T04:52:36.812Z,35.88
2023-01-20T04:53:39.305Z,31.60
2023-01-20T04:54:42.745Z,31.95
2023-01-20T04:55:45.263Z,33.25
2023-01-20T04:56:49.692Z,39.65
2023-01-20T04:57:59.754Z,38.83
2023-01-20T04:59:02.253Z,34.65
2023-01-20T05:00:06.293Z,38.40
2023-01-20T05:01:09.328Z,36.83
2023-01-20T05:02:19.889Z,33.25
2023-01-20T05:03:22.677Z,32.08
2023-01-20T05:04:26.043Z,35.95
2023-01-20T05:05:28.550Z,36.78
2023-01-20T05:06:31.998Z,32.63
2023-01-20T05:07:42.755Z,38.63
2023-01-20T05:08:52.781Z,39.05
2023-01-20T05:09:55.263Z,36.83
2023-01-20T05:10:58.694Z,34.75
2023-01-20T05:12:01.205Z,37.78
2023-01-20T05:13:10.762Z,36.30
2023-01-20T05:14:27.882Z,41.92
2023-01-20T05:15:30.345Z,42.83
2023-01-20T05:16:35.006Z,39.13
2023-01-20T05:17:37.671Z,37.20
2023-01-20T05:18:47.746Z,40.90
2023-01-20T05:19:50.217Z,38.97
2023-01-20T05:20:59.931Z,38.78
2023-01-20T05:22:02.423Z,40.95
2023-01-20T05:23:13.759Z,40.97
2023-01-20T05:24:17.188Z,38.10
2023-01-20T05:25:19.713Z,37.88
2023-01-20T05:26:30.736Z,43.78
2023-01-20T05:27:35.221Z,37.85
2023-01-20T05:28:38.639Z,37.30
2023-01-20T05:29:47.773Z,40.53
2023-01-20T05:30:52.081Z,40.80
2023-01-20T05:31:54.614Z,39.15
2023-01-20T05:32:58.043Z,45.55
2023-01-20T05:34:03.813Z,40.08
2023-01-20T05:35:13.109Z,39.45
2023-01-20T05:36:16.695Z,38.47
2023-01-20T05:37:19.323Z,36.60
2023-01-20T05:38:24.062Z,36.40
2023-01-20T05:39:32.743Z,37.70
2023-01-20T05:40:36.188Z,32.17
2023-01-20T05:41:38.696Z,36.33
2023-01-20T05:42:42.114Z,38.65
2023-01-20T05:43:44.644Z,36.13
2023-01-20T05:44:54.800Z,40.75
2023-01-20T05:45:57.298Z,37.05
2023-01-20T05:47:00.716Z,36.60
2023-01-20T05:48:03.402Z,32.38
2023-01-20T05:49:06.813Z,34.95
2023-01-20T05:50:15.764Z,33.90
2023-01-20T05:51:19.274Z,31.58
2023-01-20T05:52:28.777Z,35.25
2023-01-20T05:53:33.504Z,31.98
2023-01-20T05:54:36.024Z,36.35
2023-01-20T05:55:39.419Z,38.22
2023-01-20T05:56:41.914Z,36.13
2023-01-20T05:57:51.796Z,35.13
2023-01-20T05:58:56.460Z,34.75
2023-01-20T05:59:59.864Z,40.30
2023-01-20T06:01:06.058Z,32.25
2023-01-20T06:02:09.473Z,36.55
2023-01-20T06:03:18.775Z,36.40
2023-01-20T06:04:22.174Z,38.63
2023-01-20T06:05:30.765Z,37.13
2023-01-20T06:06:34.321Z,35.67
2023-01-20T06:07:37.044Z,39.70
2023-01-20T06:08:48.763Z,30.17
2023-01-20T06:09:51.251Z,36.65
2023-01-20T06:10:54.783Z,36.25
2023-01-20T06:12:03.769Z,33.50
2023-01-20T06:13:13.964Z,33.92
2023-01-20T06:14:29.804Z,33.35
2023-01-20T06:15:33.250Z,35.08
2023-01-20T06:16:35.747Z,33.70
2023-01-20T06:17:39.314Z,33.53
2023-01-20T06:18:42.239Z,32.17
2023-01-20T06:19:51.770Z,30.08
2023-01-20T06:20:57.817Z,32.97
2023-01-20T06:22:07.757Z,28.50
2023-01-20T06:23:10.220Z,30.23
2023-01-20T06:24:14.983Z,31.17
2023-01-20T06:25:17.890Z,32.45
2023-01-20T06:26:27.785Z,33.30
2023-01-20T06:27:30.324Z,33.05
2023-01-20T06:28:40.753Z,35.38
2023-01-20T06:29:43.241Z,35.28
2023-01-20T06:30:52.767Z,33.33
2023-01-20T06:31:56.283Z,32.00
2023-01-20T06:33:00.545Z,33.72
2023-01-20T06:34:03.008Z,32.25
2023-01-20T06:35:06.677Z,35.22
2023-01-20T06:36:19.755Z,31.80
2023-01-20T06:37:23.143Z,33.80
2023-01-20T06:38:26.255Z,32.80
2023-01-20T06:39:31.192Z,29.77
2023-01-20T06:40:33.707Z,32.15
2023-01-20T06:41:43.802Z,36.03
2023-01-20T06:42:53.967Z,29.40
2023-01-20T06:43:56.497Z,33.80
2023-01-20T06:44:59.914Z,32.20
2023-01-20T06:46:02.815Z,33.95
2023-01-20T06:47:12.773Z,34.63
2023-01-20T06:48:16.334Z,31.35
2023-01-20T06:49:20.175Z,37.67
2023-01-20T06:50:22.653Z,34.53
2023-01-20T06:51:26.069Z,29.20
2023-01-20T06:52:34.822Z,34.60
2023-01-20T06:53:38.417Z,36.42
2023-01-20T06:54:42.245Z,30.42
2023-01-20T06:55:45.631Z,34.47
2023-01-20T06:56:49.013Z,31.35
2023-01-20T06:57:57.785Z,31.63
2023-01-20T06:59:01.232Z,35.50
2023-01-20T07:00:04.953Z,32.42
2023-01-20T07:01:09.013Z,33.42
2023-01-20T07:02:19.894Z,33.70
2023-01-20T07:03:22.685Z,34.08
2023-01-20T07:04:26.170Z,36.15
2023-01-20T07:05:28.703Z,34.55
2023-01-20T07:06:33.026Z,36.45
2023-01-20T07:07:42.801Z,35.13
2023-01-20T07:08:46.233Z,40.08
2023-01-20T07:09:51.952Z,37.45
2023-01-20T07:10:55.385Z,36.72
2023-01-20T07:11:58.814Z,31.63
2023-01-20T07:13:07.767Z,35.47
2023-01-20T07:14:24.762Z,39.22
2023-01-20T07:15:33.989Z,32.78
2023-01-20T07:16:37.898Z,34.40
2023-01-20T07:17:40.427Z,38.90
2023-01-20T07:18:50.783Z,38.75
2023-01-20T07:19:54.174Z,39.25
2023-01-20T07:20:57.845Z,36.92
2023-01-20T07:22:01.263Z,35.28
2023-01-20T07:23:03.943Z,33.85
2023-01-20T07:24:13.805Z,34.15
2023-01-20T07:25:17.753Z,37.80
2023-01-20T07:26:28.772Z,39.88
2023-01-20T07:27:31.278Z,36.58
2023-01-20T07:28:35.082Z,35.60
2023-01-20T07:29:38.082Z,34.95
2023-01-20T07:30:41.574Z,39.08
2023-01-20T07:31:50.829Z,35.50
2023-01-20T07:32:55.272Z,32.95
2023-01-20T07:34:05.753Z,37.30
2023-01-20T07:35:09.506Z,38.30
2023-01-20T07:36:20.384Z,46.47
2023-01-20T07:37:23.822Z,35.78
2023-01-20T07:38:26.313Z,37.88
2023-01-20T07:39:29.754Z,39.72
2023-01-20T07:40:33.613Z,37.15
2023-01-20T07:41:43.852Z,35.92
2023-01-20T07:42:46.329Z,37.47
2023-01-20T07:43:50.671Z,36.72
2023-01-20T07:44:53.174Z,37.25
2023-01-20T07:45:57.108Z,36.35
2023-01-20T07:47:06.782Z,37.05
2023-01-20T07:48:10.338Z,40.92
2023-01-20T07:49:13.017Z,34.22
2023-01-20T07:50:16.549Z,36.83
2023-01-20T07:51:19.043Z,38.17
2023-01-20T07:52:28.785Z,40.70
2023-01-20T07:53:37.841Z,36.50
2023-01-20T07:54:41.274Z,38.10
2023-01-20T07:55:45.143Z,31.23
2023-01-20T07:56:48.603Z,33.92
2023-01-20T07:57:58.813Z,35.78
2023-01-20T07:59:01.672Z,36.85
2023-01-20T08:00:12.768Z,35.97
2023-01-20T08:01:17.244Z,40.83
2023-01-20T08:02:19.733Z,42.10
2023-01-20T08:03:24.150Z,40.50
2023-01-20T08:04:35.834Z,31.92
2023-01-20T08:05:38.423Z,34.45
2023-01-20T08:06:41.877Z,39.45
2023-01-20T08:07:44.349Z,37.50
2023-01-20T08:08:47.844Z,39.72
2023-01-20T08:09:57.821Z,40.40
2023-01-20T08:11:01.697Z,42.15
2023-01-20T08:12:05.239Z,36.42
2023-01-20T08:13:08.653Z,41.53
2023-01-20T08:14:18.961Z,38.90
2023-01-20T08:15:34.815Z,38.28
2023-01-20T08:16:38.308Z,42.92
2023-01-20T08:17:40.830Z,40.03
2023-01-20T08:18:44.653Z,43.13
2023-01-20T08:19:48.102Z,49.28
2023-01-20T08:20:56.831Z,46.15
2023-01-20T08:22:00.285Z,43.25
2023-01-20T08:23:02.810Z,47.00
2023-01-20T08:24:06.769Z,49.38
2023-01-20T08:25:09.597Z,47.65
2023-01-20T08:26:20.778Z,49.45
2023-01-20T08:27:24.198Z,49.60
2023-01-20T08:28:27.096Z,45.55
2023-01-20T08:29:31.309Z,41.80
2023-01-20T08:30:34.789Z,38.50
2023-01-20T08:31:44.952Z,42.83
2023-01-20T08:32:48.446Z,46.60
2023-01-20T08:33:54.874Z,47.92
2023-01-20T08:34:58.283Z,45.38
2023-01-20T08:36:04.386Z,47.28
2023-01-20T08:37:15.413Z,49.40
2023-01-20T08:38:18.836Z,52.13
2023-01-20T08:39:23.014Z,48.75
2023-01-20T08:40:25.576Z,48.53
2023-01-20T08:41:31.905Z,50.80
2023-01-20T08:42:40.872Z,56.25
2023-01-20T08:43:44.695Z,49.15
2023-01-20T08:44:48.420Z,49.85
2023-01-20T08:45:59.826Z,53.33
2023-01-20T08:47:03.635Z,61.53
2023-01-20T08:48:12.803Z,52.45
2023-01-20T08:49:17.836Z,59.67
2023-01-20T08:50:22.633Z,55.45
2023-01-20T08:51:27.275Z,46.80
2023-01-20T08:52:30.747Z,52.40
2023-01-20T08:53:39.804Z,53.65
2023-01-20T08:54:49.764Z,49.97
2023-01-20T08:55:57.311Z,44.63
2023-01-20T08:57:02.115Z,50.22
2023-01-20T08:58:04.821Z,44.53
2023-01-20T08:59:14.808Z,45.65
2023-01-20T09:00:19.178Z,44.97
2023-01-20T09:01:23.617Z,45.05
2023-01-20T09:02:27.459Z,47.80
2023-01-20T09:03:32.257Z,48.97
2023-01-20T09:04:44.872Z,43.55
2023-01-20T09:05:54.751Z,49.40
2023-01-20T09:06:58.133Z,48.75
2023-01-20T09:08:01.656Z,45.28
2023-01-20T09:09:10.806Z,52.53
2023-01-20T09:10:14.619Z,44.30
2023-01-20T09:11:18.174Z,49.70
2023-01-20T09:12:23.034Z,51.83
2023-01-20T09:13:31.962Z,46.42
2023-01-20T09:14:48.785Z,46.20
2023-01-20T09:15:54.385Z,45.20
2023-01-20T09:16:57.776Z,42.88
2023-01-20T09:18:00.430Z,45.35
2023-01-20T09:19:04.251Z,44.50
2023-01-20T09:20:14.753Z,43.83
2023-01-20T09:21:18.159Z,45.22
2023-01-20T09:22:20.619Z,43.97
2023-01-20T09:23:24.034Z,44.33
2023-01-20T09:24:47.867Z,45.40
2023-01-20T09:25:50.464Z,44.45
2023-01-20T09:27:00.879Z,38.33
2023-01-20T09:28:06.616Z,42.05
2023-01-20T09:29:11.657Z,47.22
2023-01-20T09:30:21.874Z,42.10
2023-01-20T09:31:26.312Z,46.30
2023-01-20T09:32:29.907Z,46.97
2023-01-20T09:33:32.501Z,47.00
2023-01-20T09:34:36.317Z,44.63
2023-01-20T09:35:45.884Z,49.13
2023-01-20T09:36:51.707Z,44.35
2023-01-20T09:38:19.768Z,46.42
2023-01-20T09:39:41.268Z,47.35
2023-01-20T09:41:07.733Z,48.08
2023-01-20T09:42:52.761Z,49.25
2023-01-20T09:44:00.739Z,48.30
2023-01-20T09:45:10.032Z,44.53
2023-01-20T09:46:17.183Z,47.70
2023-01-20T09:47:28.639Z,50.25
2023-01-20T09:49:04.781Z,46.75
2023-01-20T09:50:32.962Z,49.92
2023-01-20T09:51:57.756Z,50.90
2023-01-20T09:53:12.767Z,45.13
2023-01-20T09:54:25.799Z,47.45
2023-01-20T09:55:30.768Z,44.53
2023-01-20T09:56:38.773Z,46.53
2023-01-20T09:57:43.973Z,49.97
2023-01-20T09:58:50.484Z,52.13
2023-01-20T10:00:03.170Z,50.75
2023-01-20T10:01:10.861Z,46.58
2023-01-20T10:02:17.338Z,51.20
2023-01-20T10:03:26.047Z,47.05
2023-01-20T10:04:32.953Z,48.92
2023-01-20T10:05:44.795Z,51.67
2023-01-20T10:06:50.598Z,44.25
2023-01-20T10:07:55.700Z,45.40
2023-01-20T10:09:05.905Z,52.97
2023-01-20T10:10:20.887Z,51.05
2023-01-20T10:11:32.901Z,51.42
2023-01-20T10:12:39.867Z,47.80
2023-01-20T10:14:05.753Z,46.58
2023-01-20T10:15:18.821Z,49.80
2023-01-20T10:16:31.793Z,46.28
2023-01-20T10:17:37.089Z,44.70
2023-01-20T10:18:45.180Z,44.33
2023-01-20T10:19:51.486Z,50.15
2023-01-20T10:20:56.444Z,47.42
2023-01-20T10:22:10.832Z,48.88
2023-01-20T10:23:17.135Z,49.85
2023-01-20T10:24:22.936Z,46.83
2023-01-20T10:25:29.338Z,44.13
2023-01-20T10:26:40.784Z,46.40
2023-01-20T10:27:46.880Z,50.85
2023-01-20T10:28:54.605Z,44.55
2023-01-20T10:30:00.267Z,43.67
2023-01-20T10:31:11.888Z,35.88
2023-01-20T10:32:27.826Z,36.58
2023-01-20T10:33:33.237Z,38.83
2023-01-20T10:34:40.815Z,43.33
2023-01-20T10:35:46.736Z,42.25
2023-01-20T10:36:52.542Z,44.08
2023-01-20T10:38:04.755Z,42.65
2023-01-20T10:39:13.727Z,41.13
2023-01-20T10:40:20.154Z,42.83
2023-01-20T10:41:27.283Z,34.67
2023-01-20T10:42:30.754Z,44.78
2023-01-20T10:43:40.815Z,41.17
2023-01-20T10:44:44.826Z,39.70
2023-01-20T10:46:00.464Z,45.85
2023-01-20T10:47:16.374Z,44.25
2023-01-20T10:48:27.415Z,43.53
2023-01-20T10:49:48.955Z,43.50
2023-01-20T10:50:57.399Z,37.20
2023-01-20T10:52:08.618Z,44.80
2023-01-20T10:53:23.542Z,43.30
2023-01-20T10:54:37.917Z,44.42
2023-01-20T10:55:46.224Z,46.42
2023-01-20T10:56:53.759Z,42.17
2023-01-20T10:57:58.610Z,39.83
2023-01-20T10:59:04.856Z,42.45
2023-01-20T11:00:16.148Z,44.47
2023-01-20T11:01:21.578Z,41.30
2023-01-20T11:02:27.574Z,38.70
2023-01-20T11:03:32.131Z,39.47
2023-01-20T11:04:36.253Z,40.20
2023-01-20T11:05:45.914Z,43.15
2023-01-20T11:06:52.902Z,40.67
2023-01-20T11:07:56.815Z,47.67
2023-01-20T11:09:03.480Z,40.83
2023-01-20T11:10:21.915Z,41.85
2023-01-20T11:11:26.163Z,43.72
2023-01-20T11:12:58.911Z,41.95
2023-01-20T11:14:24.281Z,40.80
2023-01-20T11:15:37.895Z,40.10
2023-01-20T11:16:44.958Z,49.03
2023-01-20T11:18:15.746Z,45.35
2023-01-20T11:19:21.764Z,46.08
2023-01-20T11:20:25.540Z,41.53
2023-01-20T11:21:36.768Z,40.72
2023-01-20T11:22:39.380Z,41.20
2023-01-20T11:23:49.812Z,44.88
2023-01-20T11:24:56.079Z,43.20
2023-01-20T11:25:59.863Z,42.22
2023-01-20T11:27:07.518Z,48.00
2023-01-20T11:28:17.725Z,44.40
2023-01-20T11:29:35.923Z,41.53
2023-01-20T11:30:39.532Z,39.55
2023-01-20T11:31:44.239Z,41.83
2023-01-20T11:32:47.765Z,42.10
2023-01-20T11:33:59.646Z,40.35
2023-01-20T11:35:09.747Z,42.95
2023-01-20T11:36:25.919Z,44.42
2023-01-20T11:37:36.335Z,49.92
2023-01-20T11:38:43.775Z,256.38
2023-01-20T11:40:00.373Z,410.63
2023-01-20T11:41:03.982Z,112.57
2023-01-20T11:42:23.937Z,77.93
2023-01-20T11:43:33.920Z,51.97
2023-01-20T11:44:43.015Z,63.58
2023-01-20T11:45:47.357Z,62.03
2023-01-20T11:46:50.802Z,67.80
2023-01-20T11:48:24.783Z,57.17
2023-01-20T11:49:29.472Z,51.97
2023-01-20T11:50:37.476Z,50.00
2023-01-20T11:51:46.166Z,50.80
2023-01-20T11:52:54.813Z,48.53
2023-01-20T11:54:08.204Z,47.88
2023-01-20T11:55:13.804Z,56.78
2023-01-20T11:56:19.373Z,55.80
2023-01-20T11:57:21.923Z,53.42
2023-01-20T11:58:35.813Z,43.88
2023-01-20T11:59:55.777Z,47.72
2023-01-20T12:01:02.759Z,46.30
2023-01-20T12:02:23.369Z,44.22
2023-01-20T12:03:45.542Z,52.28
2023-01-20T12:05:09.842Z,47.15
2023-01-20T12:06:15.554Z,40.28
2023-01-20T12:07:23.007Z,35.47
2023-01-20T12:08:28.904Z,38.53
2023-01-20T12:09:34.700Z,39.53
2023-01-20T12:10:45.882Z,35.97
2023-01-20T12:11:53.907Z,40.90
2023-01-20T12:13:00.546Z,37.28
2023-01-20T12:14:31.785Z,36.33
2023-01-20T12:15:36.583Z,43.80
2023-01-20T12:16:46.868Z,39.10
2023-01-20T12:18:00.832Z,37.63
2023-01-20T12:19:05.932Z,41.30
2023-01-20T12:20:16.278Z,36.80
2023-01-20T12:21:19.813Z,35.92
2023-01-20T12:22:32.795Z,35.78
2023-01-20T12:23:45.719Z,35.38
2023-01-20T12:25:13.164Z,37.90
2023-01-20T12:26:23.799Z,40.63
2023-01-20T12:27:29.870Z,39.65
2023-01-20T12:28:36.985Z,41.80
2023-01-20T12:29:44.920Z,35.58
2023-01-20T12:30:58.948Z,33.67
2023-01-20T12:32:01.628Z,37.17
2023-01-20T12:33:05.155Z,36.45
2023-01-20T12:34:13.114Z,36.63
2023-01-20T12:35:17.926Z,37.13
2023-01-20T12:36:34.974Z,38.53
2023-01-20T12:37:45.812Z,39.88
2023-01-20T12:39:01.152Z,40.90
2023-01-20T12:40:19.512Z,36.53
2023-01-20T12:41:31.269Z,40.90
2023-01-20T12:42:48.825Z,41.70
2023-01-20T12:43:56.246Z,40.17
2023-01-20T12:45:00.142Z,37.03
2023-01-20T12:46:09.713Z,39.92
2023-01-20T12:47:26.798Z,44.53
2023-01-20T12:48:38.986Z,43.50
2023-01-20T12:49:53.728Z,41.42
2023-01-20T12:51:04.658Z,42.05
2023-01-20T12:52:27.896Z,40.13
2023-01-20T12:53:52.025Z,41.05
2023-01-20T12:55:07.843Z,38.95
2023-01-20T12:56:17.350Z,40.60
2023-01-20T12:57:27.838Z,44.00
2023-01-20T12:58:46.824Z,41.67
2023-01-20T12:59:53.147Z,41.72
2023-01-20T13:01:06.317Z,44.58
2023-01-20T13:02:18.805Z,40.30
2023-01-20T13:03:45.841Z,39.60
2023-01-20T13:05:04.143Z,44.13
2023-01-20T13:06:23.324Z,42.53
2023-01-20T13:07:47.531Z,46.33
2023-01-20T13:09:00.897Z,43.75
2023-01-20T13:10:22.753Z,44.00
2023-01-20T13:11:33.662Z,45.38
2023-01-20T13:12:39.943Z,42.53
2023-01-20T13:13:56.925Z,48.20
2023-01-20T13:15:22.808Z,41.60
2023-01-20T13:16:37.973Z,42.15
2023-01-20T13:17:44.189Z,46.20
2023-01-20T13:18:56.794Z,40.17
2023-01-20T13:20:08.017Z,43.17
2023-01-20T13:21:23.959Z,41.08
2023-01-20T13:22:27.733Z,38.45
2023-01-20T13:23:32.253Z,43.53
2023-01-20T13:24:36.526Z,45.35
2023-01-20T13:25:41.253Z,43.30
2023-01-20T13:26:51.827Z,41.33
2023-01-20T13:27:55.614Z,42.53
2023-01-20T13:29:00.619Z,43.78
2023-01-20T13:30:04.637Z,42.13
2023-01-20T13:31:30.004Z,42.72
2023-01-20T13:32:43.827Z,44.15
2023-01-20T13:33:46.549Z,43.33
2023-01-20T13:34:49.974Z,43.15
2023-01-20T13:35:52.738Z,39.35
2023-01-20T13:37:20.819Z,39.70
2023-01-20T13:38:25.294Z,49.35
2023-01-20T13:39:41.795Z,41.15
2023-01-20T13:40:49.337Z,40.88
2023-01-20T13:41:59.811Z,42.45
2023-01-20T13:43:09.893Z,39.30
2023-01-20T13:44:26.964Z,41.83
2023-01-20T13:45:30.383Z,44.55
2023-01-20T13:46:45.252Z,42.13
2023-01-20T13:47:59.995Z,48.83
2023-01-20T13:49:27.970Z,41.28
2023-01-20T13:50:32.734Z,39.95
2023-01-20T13:51:48.101Z,44.08
2023-01-20T13:53:05.375Z,44.22
2023-01-20T13:54:30.789Z,40.70
2023-01-20T13:55:55.876Z,39.58
2023-01-20T13:57:14.251Z,44.05
2023-01-20T13:58:20.425Z,43.75
2023-01-20T13:59:24.223Z,44.50
2023-01-20T14:00:27.987Z,111.53
2023-01-20T14:01:38.037Z,71.88
2023-01-20T14:02:40.936Z,58.33
2023-01-20T14:03:44.804Z,64.88
2023-01-20T14:04:47.337Z,62.80
2023-01-20T14:05:52.200Z,60.25
2023-01-20T14:07:01.828Z,51.40
2023-01-20T14:08:05.834Z,47.40
2023-01-20T14:09:12.028Z,44.35
2023-01-20T14:10:15.071Z,41.13
2023-01-20T14:11:20.804Z,45.17
2023-01-20T14:12:29.862Z,41.72
2023-01-20T14:13:34.623Z,45.45
2023-01-20T14:14:58.865Z,44.97
2023-01-20T14:16:02.388Z,41.53
2023-01-20T14:17:11.025Z,48.47
2023-01-20T14:18:24.860Z,50.40
2023-01-20T14:19:32.282Z,49.03
2023-01-20T14:20:37.317Z,54.60
2023-01-20T14:21:41.796Z,50.17
2023-01-20T14:22:44.375Z,51.42
2023-01-20T14:23:54.842Z,47.08
2023-01-20T14:24:59.176Z,45.28
2023-01-20T14:26:04.039Z,47.03
2023-01-20T14:27:08.473Z,56.95
2023-01-20T14:28:20.616Z,52.15
2023-01-20T14:29:31.893Z,49.58
2023-01-20T14:30:34.606Z,48.72
2023-01-20T14:31:40.853Z,45.95
2023-01-20T14:32:43.514Z,44.38